Groves, North Carolina
Current Conditions -  °F | °C
As of 5:06 PM on Sunday 23 Nov 2014 (Local Time) from KAKH Reporting Station
Moderate Rain Moderate Rain  
Wind Chill: 54°   Ceiling: 300
Heat Index: 54°   Visibility: 4mi
Dew Point: 51°   Wind: 8mph
Humidity: 90%   Direction: 70°ENE
Pressure: 29.85"   Gusts: NA
Location:  35.2205°N, 81.2501°W
Report Text: KAKH 232206Z AUTO 07007KT 4SM RA BR OVC003 12/11 A2985 RMK AO2 CIG 002V006 P0001 T01220106
Loading
Personal Weather Stations






























Interactive Weather Map New forecast layout! Learn more

10-Day Weather Forecast

Advertisements
Track Severe Weather on mobile